Max, Nebraska
Current Conditions -  °F | °C
As of 8:53 PM on Thursday 18 Dec 2014 (Local Time) from KIML Reporting Station
Haze Haze  
Wind Chill: 18°   Ceiling: Unl
Heat Index: 18°   Visibility: 3mi
Dew Point: 16°   Wind: 0mph
Humidity: 92%   Direction: NA
Pressure: 30.11"   Gusts: NA
Location:  40.11°N, 101.4°W
Report Text: KIML 190353Z AUTO 00000KT 3SM BR CLR M08/M09 A3011 RMK AO2 SLP237 I1000 T10781089
Loading
Personal Weather Stations






























Interactive Weather Map New forecast layout! Learn more

10-Day Weather Forecast

Advertisements
Track Severe Weather on mobile